createdAt,value
2019-03-28T00:00:54.100Z,39.53
2019-03-28T00:03:22.599Z,39.70
2019-03-28T00:05:51.303Z,39.53
2019-03-28T00:08:19.770Z,37.07
2019-03-28T00:10:48.266Z,36.37
2019-03-28T00:13:16.763Z,36.97
2019-03-28T00:15:45.318Z,42.37
2019-03-28T00:18:13.813Z,37.30
2019-03-28T00:20:42.347Z,39.87
2019-03-28T00:23:24.410Z,40.50
2019-03-28T00:25:52.944Z,42.57
2019-03-28T00:28:21.418Z,39.63
2019-03-28T00:30:50.153Z,39.17
2019-03-28T00:33:18.690Z,41.33
2019-03-28T00:35:47.187Z,37.57
2019-03-28T00:38:15.727Z,38.53
2019-03-28T00:40:44.287Z,36.47
2019-03-28T00:43:12.753Z,35.70
2019-03-28T00:45:44.405Z,39.33
2019-03-28T00:48:11.506Z,37.80
2019-03-28T00:50:39.972Z,44.13
2019-03-28T00:53:08.611Z,37.00
2019-03-28T00:55:37.295Z,41.30
2019-03-28T00:58:05.940Z,40.27
2019-03-28T01:00:34.568Z,40.77
2019-03-28T01:03:03.793Z,43.97
2019-03-28T01:05:32.427Z,39.87
2019-03-28T01:08:01.092Z,35.67
2019-03-28T01:10:29.718Z,35.40
2019-03-28T01:12:58.308Z,34.70
2019-03-28T01:15:26.842Z,35.67
2019-03-28T01:17:55.339Z,34.13
2019-03-28T01:20:23.879Z,38.53
2019-03-28T01:22:52.378Z,32.20
2019-03-28T01:25:20.913Z,36.67
2019-03-28T01:27:49.406Z,37.17
2019-03-28T01:30:17.942Z,37.27
2019-03-28T01:32:46.671Z,34.47
2019-03-28T01:35:15.163Z,38.53
2019-03-28T01:37:43.630Z,36.87
2019-03-28T01:40:12.186Z,38.53
2019-03-28T01:42:40.654Z,39.43
2019-03-28T01:45:09.689Z,35.90
2019-03-28T01:47:38.222Z,32.80
2019-03-28T01:50:07.053Z,36.13
2019-03-28T01:52:35.592Z,37.93
2019-03-28T01:55:06.083Z,34.70
2019-03-28T01:57:34.616Z,40.47
2019-03-28T02:00:03.390Z,40.17
2019-03-28T02:02:32.022Z,35.83
2019-03-28T02:05:00.662Z,35.53
2019-03-28T02:07:29.227Z,39.17
2019-03-28T02:09:58.176Z,38.10
2019-03-28T02:12:26.767Z,36.67
2019-03-28T02:14:55.327Z,38.47
2019-03-28T02:17:23.826Z,39.37
2019-03-28T02:19:52.300Z,39.47
2019-03-28T02:22:20.830Z,39.53
2019-03-28T02:24:49.326Z,35.50
2019-03-28T02:27:23.822Z,39.33
2019-03-28T02:29:48.082Z,39.90
2019-03-28T02:32:16.580Z,39.23
2019-03-28T02:34:48.797Z,38.30
2019-03-28T02:37:15.237Z,40.00
2019-03-28T02:39:43.803Z,35.70
2019-03-28T02:42:12.348Z,44.27
2019-03-28T02:44:40.902Z,38.33
2019-03-28T02:47:09.546Z,41.93
2019-03-28T02:49:38.185Z,41.47
2019-03-28T02:52:06.728Z,41.13
2019-03-28T02:54:35.189Z,43.23
2019-03-28T02:57:03.758Z,45.57
2019-03-28T02:59:32.256Z,41.73
2019-03-28T03:02:00.820Z,41.87
2019-03-28T03:04:29.337Z,44.53
2019-03-28T03:06:57.892Z,42.50
2019-03-28T03:09:26.361Z,43.97
2019-03-28T03:11:54.987Z,45.40
2019-03-28T03:14:23.518Z,49.47
2019-03-28T03:16:52.014Z,46.93
2019-03-28T03:19:20.579Z,49.07
2019-03-28T03:21:49.135Z,47.50
2019-03-28T03:24:17.599Z,48.50
2019-03-28T03:26:46.099Z,49.67
2019-03-28T03:29:14.563Z,43.00
2019-03-28T03:31:43.069Z,46.37
2019-03-28T03:34:11.676Z,46.30
2019-03-28T03:36:40.211Z,48.73
2019-03-28T03:39:09.254Z,51.67
2019-03-28T03:41:37.930Z,47.13
2019-03-28T03:44:06.566Z,48.43
2019-03-28T03:46:35.101Z,47.20
2019-03-28T03:49:04.767Z,46.23
2019-03-28T03:51:33.501Z,46.07
2019-03-28T03:54:02.067Z,46.53
2019-03-28T03:56:30.530Z,49.53
2019-03-28T03:58:59.082Z,51.37
2019-03-28T04:01:27.637Z,52.37
2019-03-28T04:03:56.275Z,50.77
2019-03-28T04:06:24.767Z,44.07
2019-03-28T04:08:53.868Z,50.77
2019-03-28T04:11:22.670Z,50.87
2019-03-28T04:13:51.139Z,49.53
2019-03-28T04:16:19.703Z,47.90
2019-03-28T04:18:48.168Z,47.90
2019-03-28T04:21:17.598Z,46.37
2019-03-28T04:23:46.317Z,49.07
2019-03-28T04:26:14.947Z,46.30
2019-03-28T04:28:43.413Z,46.80
2019-03-28T04:31:11.988Z,51.07
2019-03-28T04:33:40.520Z,50.27
2019-03-28T04:36:09.046Z,47.37
2019-03-28T04:38:37.580Z,48.30
2019-03-28T04:41:06.119Z,44.27
2019-03-28T04:43:34.691Z,46.63
2019-03-28T04:46:03.686Z,44.87
2019-03-28T04:48:32.194Z,48.10
2019-03-28T04:51:01.339Z,46.77
2019-03-28T04:53:29.907Z,45.13
2019-03-28T04:55:58.470Z,44.43
2019-03-28T04:58:27.027Z,49.40
2019-03-28T05:00:55.611Z,52.40
2019-03-28T05:03:24.102Z,48.63
2019-03-28T05:05:52.639Z,46.10
2019-03-28T05:08:21.156Z,48.90
2019-03-28T05:10:49.692Z,47.60
2019-03-28T05:13:18.227Z,42.47
2019-03-28T05:15:46.721Z,48.70
2019-03-28T05:18:15.186Z,46.13
2019-03-28T05:20:43.675Z,48.47
2019-03-28T05:23:12.167Z,44.53
2019-03-28T05:25:40.634Z,47.87
2019-03-28T05:28:09.213Z,46.90
2019-03-28T05:30:37.680Z,46.80
2019-03-28T05:33:06.216Z,45.63
2019-03-28T05:35:34.711Z,48.67
2019-03-28T05:38:03.175Z,46.57
2019-03-28T05:40:31.812Z,45.40
2019-03-28T05:43:00.298Z,43.57
2019-03-28T05:45:28.845Z,44.33
2019-03-28T05:48:00.206Z,44.00
2019-03-28T05:50:27.530Z,44.33
2019-03-28T05:52:56.097Z,43.00
2019-03-28T05:55:24.630Z,45.70
2019-03-28T06:00:38.782Z,45.43
2019-03-28T06:03:05.860Z,43.20
2019-03-28T06:05:34.395Z,40.03
2019-03-28T06:08:02.885Z,43.37
2019-03-28T06:10:31.503Z,44.37
2019-03-28T06:13:00.062Z,40.73
2019-03-28T06:15:28.558Z,42.93
2019-03-28T06:17:57.050Z,40.73
2019-03-28T06:20:25.533Z,43.83
2019-03-28T06:22:53.999Z,45.97
2019-03-28T06:25:22.957Z,43.33
2019-03-28T06:27:51.825Z,41.70
2019-03-28T06:30:20.550Z,42.33
2019-03-28T06:32:49.011Z,42.93
2019-03-28T06:35:18.286Z,42.37
2019-03-28T06:37:46.979Z,43.37
2019-03-28T06:40:15.607Z,41.47
2019-03-28T06:42:44.075Z,44.67
2019-03-28T06:45:13.178Z,43.87
2019-03-28T06:47:41.670Z,44.90
2019-03-28T06:50:10.478Z,38.00
2019-03-28T06:52:39.378Z,41.77
2019-03-28T06:55:08.086Z,44.63
2019-03-28T06:57:36.649Z,46.07
2019-03-28T07:00:08.594Z,42.40
2019-03-28T07:02:37.276Z,45.07
2019-03-28T07:05:06.551Z,41.83
2019-03-28T07:07:35.038Z,41.47
2019-03-28T07:10:05.221Z,45.27
2019-03-28T07:12:33.753Z,42.13
2019-03-28T07:15:02.324Z,43.73
2019-03-28T07:17:30.883Z,40.07
2019-03-28T07:19:59.367Z,42.23
2019-03-28T07:22:28.416Z,41.13
2019-03-28T07:24:56.907Z,44.87
2019-03-28T07:27:25.471Z,41.57
2019-03-28T07:29:53.943Z,41.50
2019-03-28T07:32:22.438Z,36.60
2019-03-28T07:34:50.906Z,42.80
2019-03-28T07:37:19.398Z,39.07
2019-03-28T07:39:47.897Z,38.10
2019-03-28T07:42:16.444Z,41.80
2019-03-28T07:44:45.033Z,44.20
2019-03-28T07:47:13.570Z,35.63
2019-03-28T07:49:42.147Z,37.63
2019-03-28T07:52:10.711Z,39.93
2019-03-28T07:54:39.397Z,39.93
2019-03-28T07:57:08.074Z,38.30
2019-03-28T07:59:36.594Z,38.37
2019-03-28T08:02:05.338Z,35.00
2019-03-28T08:04:33.886Z,36.20
2019-03-28T08:07:02.527Z,36.70
2019-03-28T08:09:36.422Z,35.80
2019-03-28T08:12:01.287Z,37.40
2019-03-28T08:14:29.830Z,36.20
2019-03-28T08:16:58.327Z,36.20
2019-03-28T08:19:26.822Z,38.42
2019-03-28T08:21:55.406Z,34.15
2019-03-28T08:24:24.586Z,46.68
2019-03-28T08:26:53.063Z,35.43
2019-03-28T08:29:21.695Z,40.23
2019-03-28T08:31:52.137Z,37.70
2019-03-28T08:34:20.730Z,36.98
2019-03-28T08:36:50.704Z,37.78
2019-03-28T08:39:20.814Z,38.20
2019-03-28T08:41:50.583Z,36.30
2019-03-28T08:44:22.372Z,40.47
2019-03-28T08:46:49.483Z,37.43
2019-03-28T08:49:18.027Z,39.33
2019-03-28T08:51:46.695Z,36.87
2019-03-28T08:54:15.190Z,37.23
2019-03-28T08:56:43.775Z,37.47
2019-03-28T08:59:12.247Z,40.80
2019-03-28T09:01:40.885Z,38.57
2019-03-28T09:04:09.422Z,37.73
2019-03-28T09:06:37.918Z,34.33
2019-03-28T09:09:07.826Z,37.93
2019-03-28T09:11:36.436Z,38.47
2019-03-28T09:14:05.051Z,37.07
2019-03-28T09:16:33.586Z,36.43
2019-03-28T09:19:02.163Z,34.67
2019-03-28T09:21:30.706Z,36.33
2019-03-28T09:23:59.204Z,37.00
2019-03-28T09:26:27.819Z,35.87
2019-03-28T09:28:56.314Z,29.70
2019-03-28T09:31:24.954Z,32.80
2019-03-28T09:33:53.559Z,33.53
2019-03-28T09:36:22.103Z,36.90
2019-03-28T09:38:50.820Z,36.83
2019-03-28T09:41:19.552Z,31.77
2019-03-28T09:43:55.156Z,31.40
2019-03-28T09:46:18.239Z,40.20
2019-03-28T09:48:46.822Z,34.03
2019-03-28T09:51:15.290Z,34.70
2019-03-28T09:53:43.763Z,37.17
2019-03-28T09:56:12.345Z,38.92
2019-03-28T09:58:40.931Z,41.92
2019-03-28T10:01:09.478Z,37.40
2019-03-28T10:03:38.019Z,41.75
2019-03-28T10:06:06.526Z,42.73
2019-03-28T10:08:35.056Z,29.23
2019-03-28T10:11:03.756Z,31.25
2019-03-28T10:13:32.370Z,27.93
2019-03-28T10:16:00.851Z,24.90
2019-03-28T10:18:30.206Z,31.05
2019-03-28T10:20:58.957Z,22.90
2019-03-28T10:23:27.685Z,27.23
2019-03-28T10:25:56.251Z,25.93
2019-03-28T10:28:24.718Z,24.97
2019-03-28T10:30:53.186Z,22.55
2019-03-28T10:33:21.686Z,25.05
2019-03-28T10:35:50.226Z,24.10
2019-03-28T10:38:18.734Z,21.68
2019-03-28T10:40:47.347Z,20.47
2019-03-28T10:43:15.815Z,24.57
2019-03-28T10:45:44.306Z,19.60
2019-03-28T10:48:12.803Z,17.13
2019-03-28T10:50:45.299Z,21.13
2019-03-28T10:53:11.639Z,17.00
2019-03-28T10:55:40.252Z,16.90
2019-03-28T10:58:18.384Z,19.10
2019-03-28T11:00:39.442Z,19.23
2019-03-28T11:03:08.242Z,17.60
2019-03-28T11:05:36.846Z,16.23
2019-03-28T11:08:05.411Z,19.65
2019-03-28T11:10:33.979Z,17.40
2019-03-28T11:13:02.455Z,18.73
2019-03-28T11:15:31.198Z,22.67
2019-03-28T11:17:59.738Z,17.33
2019-03-28T11:20:28.308Z,17.63
2019-03-28T11:22:57.185Z,20.03
2019-03-28T11:25:25.764Z,18.20
2019-03-28T11:27:54.398Z,17.80
2019-03-28T11:30:22.939Z,15.03
2019-03-28T11:32:51.431Z,16.43
2019-03-28T11:35:19.900Z,16.73
2019-03-28T11:37:48.930Z,17.83
2019-03-28T11:40:17.642Z,18.97
2019-03-28T11:42:46.239Z,18.33
2019-03-28T11:45:16.631Z,18.27
2019-03-28T11:47:45.971Z,19.20
2019-03-28T11:50:17.291Z,15.30
2019-03-28T11:52:46.793Z,16.40
2019-03-28T11:55:16.665Z,14.50
2019-03-28T11:57:46.213Z,16.57
2019-03-28T12:00:17.500Z,14.47
2019-03-28T12:02:46.950Z,14.13
2019-03-28T12:05:16.440Z,16.83
2019-03-28T12:07:46.562Z,15.00
2019-03-28T12:10:15.992Z,15.13
2019-03-28T12:12:44.614Z,11.90
2019-03-28T12:15:14.048Z,14.60
2019-03-28T12:17:42.587Z,14.73
2019-03-28T12:20:11.421Z,15.13
2019-03-28T12:22:39.958Z,17.20
2019-03-28T12:25:08.762Z,14.80
2019-03-28T12:27:37.500Z,13.90
2019-03-28T12:30:11.141Z,14.70
2019-03-28T12:32:39.707Z,10.83
2019-03-28T12:35:08.787Z,13.30
2019-03-28T12:37:37.275Z,11.20
2019-03-28T12:40:09.836Z,17.07
2019-03-28T12:42:39.109Z,16.30
2019-03-28T12:45:12.090Z,12.47
2019-03-28T12:47:42.559Z,13.30
2019-03-28T12:50:12.893Z,14.43
2019-03-28T12:52:42.217Z,12.37
2019-03-28T12:55:11.674Z,13.17
2019-03-28T12:57:40.359Z,11.87
2019-03-28T13:00:11.035Z,11.63
2019-03-28T13:02:40.210Z,10.50
2019-03-28T13:05:09.440Z,13.00
2019-03-28T13:07:38.051Z,11.93
2019-03-28T13:10:09.334Z,11.20
2019-03-28T13:12:38.021Z,11.27
2019-03-28T13:15:07.023Z,10.73
2019-03-28T13:17:35.636Z,8.10
2019-03-28T13:20:06.599Z,9.30
2019-03-28T13:22:35.091Z,12.60
2019-03-28T13:25:04.594Z,8.63
2019-03-28T13:27:34.627Z,8.73
2019-03-28T13:30:03.850Z,8.20
2019-03-28T13:32:41.582Z,7.63
2019-03-28T13:35:02.768Z,8.43
2019-03-28T13:37:31.417Z,7.40
2019-03-28T13:39:59.935Z,9.40
2019-03-28T13:42:28.583Z,7.53
2019-03-28T13:44:57.069Z,6.93
2019-03-28T13:47:25.647Z,8.37
2019-03-28T13:49:54.240Z,6.63
2019-03-28T13:52:22.774Z,9.30
2019-03-28T13:54:53.023Z,6.33
2019-03-28T13:57:21.751Z,5.20
2019-03-28T13:59:50.665Z,5.13
2019-03-28T14:02:19.198Z,5.47
2019-03-28T14:04:47.854Z,9.80
2019-03-28T14:07:17.441Z,4.60
2019-03-28T14:09:46.186Z,5.00
2019-03-28T14:12:14.659Z,3.80
2019-03-28T14:14:43.227Z,4.13
2019-03-28T14:17:11.795Z,4.30
2019-03-28T14:19:40.281Z,5.13
2019-03-28T14:22:08.834Z,4.60
2019-03-28T14:24:37.459Z,4.07
2019-03-28T14:27:06.026Z,4.40
2019-03-28T14:29:34.520Z,5.10
2019-03-28T14:32:03.064Z,7.40
2019-03-28T14:34:31.623Z,4.47
2019-03-28T14:37:00.188Z,3.13
2019-03-28T14:39:28.726Z,3.60
2019-03-28T14:41:57.219Z,3.00
2019-03-28T14:44:25.953Z,4.87
2019-03-28T14:46:54.492Z,4.87
2019-03-28T14:49:23.050Z,3.83
2019-03-28T14:51:51.592Z,3.97
2019-03-28T14:54:20.060Z,3.27
2019-03-28T14:56:49.302Z,4.53
2019-03-28T14:59:31.798Z,2.97
2019-03-28T15:01:50.081Z,3.33
2019-03-28T15:04:18.646Z,7.00
2019-03-28T15:06:47.186Z,6.17
2019-03-28T15:09:15.917Z,6.43
2019-03-28T15:11:44.657Z,6.13
2019-03-28T15:14:14.585Z,5.57
2019-03-28T15:16:43.143Z,5.73
2019-03-28T15:19:11.606Z,7.20
2019-03-28T15:21:40.187Z,7.50
2019-03-28T15:24:08.681Z,5.00
2019-03-28T15:26:37.287Z,5.87
2019-03-28T15:29:05.780Z,7.37
2019-03-28T15:31:34.360Z,6.50
2019-03-28T15:34:02.848Z,8.47
2019-03-28T15:36:31.687Z,6.10
2019-03-28T15:39:00.146Z,6.47
2019-03-28T15:41:28.630Z,5.47
2019-03-28T15:43:57.115Z,5.33
2019-03-28T15:46:25.675Z,7.33
2019-03-28T15:48:54.371Z,10.53
2019-03-28T15:51:22.923Z,5.80
2019-03-28T15:53:51.481Z,7.87
2019-03-28T15:56:19.946Z,6.60
2019-03-28T15:58:48.431Z,7.23
2019-03-28T16:01:16.941Z,7.77
2019-03-28T16:03:52.958Z,6.83
2019-03-28T16:06:15.666Z,5.80
2019-03-28T16:08:44.156Z,5.70
2019-03-28T16:11:12.620Z,8.47
2019-03-28T16:13:41.103Z,8.50
2019-03-28T16:16:09.591Z,5.33
2019-03-28T16:18:38.074Z,8.97
2019-03-28T16:21:06.714Z,8.57
2019-03-28T16:23:35.199Z,5.97
2019-03-28T16:26:03.745Z,5.77
2019-03-28T16:28:32.279Z,8.87
2019-03-28T16:31:00.774Z,5.30
2019-03-28T16:33:29.263Z,7.47
2019-03-28T16:35:57.803Z,10.27
2019-03-28T16:38:26.369Z,7.40
2019-03-28T16:40:54.919Z,7.73
2019-03-28T16:43:25.799Z,6.20
2019-03-28T16:45:53.691Z,6.97
2019-03-28T16:48:22.218Z,6.53
2019-03-28T16:50:50.774Z,7.23
2019-03-28T16:53:19.357Z,6.70
2019-03-28T16:55:47.814Z,6.10
2019-03-28T16:58:16.298Z,5.90
2019-03-28T17:00:44.821Z,6.47
2019-03-28T17:03:13.355Z,8.80
2019-03-28T17:05:42.008Z,4.97
2019-03-28T17:08:10.514Z,7.53
2019-03-28T17:10:44.827Z,7.17
2019-03-28T17:13:13.772Z,4.80
2019-03-28T17:15:42.371Z,5.50
2019-03-28T17:18:10.936Z,8.03
2019-03-28T17:20:39.485Z,6.50
2019-03-28T17:23:08.199Z,6.03
2019-03-28T17:25:36.668Z,8.70
2019-03-28T17:28:05.344Z,8.87
2019-03-28T17:30:33.852Z,6.50
2019-03-28T17:33:02.482Z,6.13
2019-03-28T17:35:31.024Z,6.13
2019-03-28T17:37:59.499Z,5.63
2019-03-28T17:40:27.968Z,7.43
2019-03-28T17:42:56.434Z,5.77
2019-03-28T17:45:25.692Z,4.63
2019-03-28T17:47:54.531Z,7.27
2019-03-28T17:50:23.019Z,4.90
2019-03-28T17:52:51.484Z,6.93
2019-03-28T17:55:20.049Z,6.50
2019-03-28T17:57:48.582Z,7.17
2019-03-28T18:00:17.682Z,7.93
2019-03-28T18:02:46.190Z,6.43
2019-03-28T18:05:15.980Z,7.87
2019-03-28T18:07:44.729Z,6.60
2019-03-28T18:10:13.935Z,6.03
2019-03-28T18:12:42.663Z,4.83
2019-03-28T18:15:11.674Z,5.67
2019-03-28T18:17:40.196Z,7.23
2019-03-28T18:20:09.316Z,11.40
2019-03-28T18:22:37.923Z,11.27
2019-03-28T18:25:30.029Z,9.00
2019-03-28T18:27:57.051Z,7.47
2019-03-28T18:30:25.974Z,6.93
2019-03-28T18:32:54.510Z,6.77
2019-03-28T18:35:22.972Z,6.57
2019-03-28T18:37:51.459Z,7.03
2019-03-28T18:40:20.714Z,7.50
2019-03-28T18:42:49.470Z,7.70
2019-03-28T18:45:18.344Z,7.43
2019-03-28T18:47:46.967Z,8.33
2019-03-28T18:50:16.067Z,5.93
2019-03-28T18:52:44.683Z,6.13
2019-03-28T18:55:13.879Z,6.47
2019-03-28T18:57:42.431Z,7.00
2019-03-28T19:00:11.770Z,6.17
2019-03-28T19:02:40.247Z,6.70
2019-03-28T19:05:19.103Z,9.10
2019-03-28T19:07:39.155Z,6.13
2019-03-28T19:10:08.163Z,7.40
2019-03-28T19:12:36.887Z,5.87
2019-03-28T19:15:07.114Z,7.43
2019-03-28T19:17:36.279Z,6.30
2019-03-28T19:20:07.851Z,6.03
2019-03-28T19:22:36.719Z,8.40
2019-03-28T19:25:08.748Z,4.60
2019-03-28T19:27:38.107Z,5.30
2019-03-28T19:30:07.304Z,5.40
2019-03-28T19:32:35.955Z,6.20
2019-03-28T19:35:06.931Z,7.50
2019-03-28T19:37:37.158Z,7.13
2019-03-28T19:40:08.459Z,6.27
2019-03-28T19:42:37.350Z,8.07
2019-03-28T19:45:07.524Z,6.63
2019-03-28T19:47:36.196Z,6.47
2019-03-28T19:50:07.384Z,6.07
2019-03-28T19:52:36.366Z,7.63
2019-03-28T19:55:06.372Z,6.70
2019-03-28T19:57:34.924Z,8.17
2019-03-28T20:00:04.871Z,6.67
2019-03-28T20:02:33.842Z,8.00
2019-03-28T20:05:02.723Z,5.70
2019-03-28T20:07:31.319Z,8.53
2019-03-28T20:09:59.910Z,9.33
2019-03-28T20:12:28.370Z,9.33
2019-03-28T20:15:00.031Z,7.17
2019-03-28T20:17:27.450Z,10.03
2019-03-28T20:19:55.938Z,10.33
2019-03-28T20:22:24.499Z,9.93
2019-03-28T20:24:52.990Z,10.33
2019-03-28T20:27:21.459Z,11.60
2019-03-28T20:29:50.013Z,11.67
2019-03-28T20:32:18.580Z,9.37
2019-03-28T20:34:49.121Z,9.53
2019-03-28T20:37:17.394Z,12.40
2019-03-28T20:39:45.988Z,12.10
2019-03-28T20:42:14.527Z,11.80
2019-03-28T20:44:43.196Z,10.63
2019-03-28T20:47:11.898Z,13.23
2019-03-28T20:49:40.359Z,9.87
2019-03-28T20:52:09.543Z,10.03
2019-03-28T20:54:38.379Z,8.80
2019-03-28T20:57:06.947Z,9.97
2019-03-28T20:59:35.503Z,9.33
2019-03-28T21:02:04.147Z,11.50
2019-03-28T21:04:34.078Z,10.13
2019-03-28T21:07:03.463Z,9.53
2019-03-28T21:09:32.003Z,10.80
2019-03-28T21:12:00.639Z,10.13
2019-03-28T21:14:29.131Z,11.33
2019-03-28T21:16:58.300Z,9.87
2019-03-28T21:19:27.046Z,8.57
2019-03-28T21:21:55.580Z,10.97
2019-03-28T21:24:24.140Z,9.93
2019-03-28T21:26:52.607Z,13.43
2019-03-28T21:29:21.170Z,13.23
2019-03-28T21:31:50.430Z,10.53
2019-03-28T21:34:20.423Z,10.83
2019-03-28T21:36:49.727Z,10.07
2019-03-28T21:39:18.336Z,10.83
2019-03-28T21:41:46.823Z,9.60
2019-03-28T21:44:15.306Z,9.60
2019-03-28T21:46:43.934Z,9.17
2019-03-28T21:49:13.971Z,12.23
2019-03-28T21:51:45.669Z,9.80
2019-03-28T21:54:12.825Z,15.07
2019-03-28T21:56:41.648Z,9.03
2019-03-28T21:59:10.231Z,11.10
2019-03-28T22:01:38.806Z,11.00
2019-03-28T22:04:07.365Z,11.47
2019-03-28T22:06:42.784Z,9.63
2019-03-28T22:09:06.895Z,12.07
2019-03-28T22:11:35.451Z,12.23
2019-03-28T22:14:04.078Z,9.23
2019-03-28T22:16:32.560Z,12.07
2019-03-28T22:19:01.119Z,10.43
2019-03-28T22:21:29.655Z,9.00
2019-03-28T22:23:58.227Z,12.53
2019-03-28T22:26:26.834Z,11.27
2019-03-28T22:28:55.348Z,12.37
2019-03-28T22:31:23.882Z,14.50
2019-03-28T22:33:52.353Z,10.80
2019-03-28T22:36:20.994Z,14.90
2019-03-28T22:38:49.526Z,10.87
2019-03-28T22:41:18.095Z,12.27
2019-03-28T22:43:46.586Z,13.77
2019-03-28T22:46:15.043Z,9.47
2019-03-28T22:48:44.569Z,11.57
2019-03-28T22:51:13.158Z,10.07
2019-03-28T22:53:41.643Z,11.40
2019-03-28T22:56:10.102Z,11.00
2019-03-28T22:58:38.597Z,9.53
2019-03-28T23:01:07.567Z,9.07
2019-03-28T23:03:36.162Z,10.80
2019-03-28T23:06:04.715Z,9.73
2019-03-28T23:08:33.251Z,10.27
2019-03-28T23:11:01.812Z,10.07
2019-03-28T23:13:30.367Z,12.23
2019-03-28T23:15:58.991Z,9.27
2019-03-28T23:18:27.598Z,10.93
2019-03-28T23:20:56.162Z,11.27
2019-03-28T23:23:25.836Z,10.10
2019-03-28T23:25:54.618Z,11.13
2019-03-28T23:28:23.151Z,10.23
2019-03-28T23:30:51.611Z,12.87
2019-03-28T23:33:20.099Z,9.97
2019-03-28T23:35:48.650Z,9.83
2019-03-28T23:38:17.114Z,13.27
2019-03-28T23:40:45.602Z,10.70
2019-03-28T23:43:14.063Z,12.00
2019-03-28T23:45:42.548Z,12.47
2019-03-28T23:48:11.011Z,9.93
2019-03-28T23:50:39.491Z,13.90
2019-03-28T23:53:08.848Z,12.77
2019-03-28T23:55:37.487Z,11.67
2019-03-28T23:58:05.972Z,12.87
